sensor_id;sensor_type;location;lat;lon;timestamp;P1;durP1;ratioP1;P2;durP2;ratioP2
22080;SDS011;11207;59.512;18.050;2023-07-24T00:00:20;2.80;;;2.60;;
22080;SDS011;11207;59.512;18.050;2023-07-24T00:02:46;5.37;;;2.70;;
22080;SDS011;11207;59.512;18.050;2023-07-24T00:05:11;5.20;;;2.77;;
22080;SDS011;11207;59.512;18.050;2023-07-24T00:07:37;4.23;;;2.90;;
22080;SDS011;11207;59.512;18.050;2023-07-24T00:10:03;4.50;;;2.77;;
22080;SDS011;11207;59.512;18.050;2023-07-24T00:12:29;3.53;;;2.73;;
22080;SDS011;11207;59.512;18.050;2023-07-24T00:14:55;3.90;;;2.97;;
22080;SDS011;11207;59.512;18.050;2023-07-24T00:17:21;2.87;;;2.67;;
22080;SDS011;11207;59.512;18.050;2023-07-24T00:19:46;3.00;;;2.67;;
22080;SDS011;11207;59.512;18.050;2023-07-24T00:22:12;5.23;;;3.17;;
22080;SDS011;11207;59.512;18.050;2023-07-24T00:24:37;3.77;;;2.70;;
22080;SDS011;11207;59.512;18.050;2023-07-24T00:27:03;3.07;;;2.77;;
22080;SDS011;11207;59.512;18.050;2023-07-24T00:29:29;4.90;;;3.10;;
22080;SDS011;11207;59.512;18.050;2023-07-24T00:31:54;3.17;;;2.77;;
22080;SDS011;11207;59.512;18.050;2023-07-24T00:34:20;3.33;;;2.77;;
22080;SDS011;11207;59.512;18.050;2023-07-24T00:36:46;3.30;;;2.83;;
22080;SDS011;11207;59.512;18.050;2023-07-24T00:39:13;3.80;;;2.80;;
22080;SDS011;11207;59.512;18.050;2023-07-24T00:41:39;3.07;;;2.67;;
22080;SDS011;11207;59.512;18.050;2023-07-24T00:44:05;2.77;;;2.57;;
22080;SDS011;11207;59.512;18.050;2023-07-24T00:46:30;3.97;;;2.80;;
22080;SDS011;11207;59.512;18.050;2023-07-24T00:48:57;2.77;;;2.57;;
22080;SDS011;11207;59.512;18.050;2023-07-24T00:51:25;4.13;;;2.70;;
22080;SDS011;11207;59.512;18.050;2023-07-24T00:53:58;3.30;;;3.00;;
22080;SDS011;11207;59.512;18.050;2023-07-24T00:56:26;3.53;;;3.03;;
22080;SDS011;11207;59.512;18.050;2023-07-24T00:58:53;5.63;;;2.90;;
22080;SDS011;11207;59.512;18.050;2023-07-24T01:01:20;3.60;;;2.50;;
22080;SDS011;11207;59.512;18.050;2023-07-24T01:03:47;3.30;;;2.70;;
22080;SDS011;11207;59.512;18.050;2023-07-24T01:06:13;4.43;;;2.73;;
22080;SDS011;11207;59.512;18.050;2023-07-24T01:08:38;3.83;;;2.60;;
22080;SDS011;11207;59.512;18.050;2023-07-24T01:11:19;3.03;;;2.73;;
22080;SDS011;11207;59.512;18.050;2023-07-24T01:14:11;2.90;;;2.60;;
22080;SDS011;11207;59.512;18.050;2023-07-24T01:16:43;2.83;;;2.40;;
22080;SDS011;11207;59.512;18.050;2023-07-24T01:19:33;3.93;;;2.83;;
22080;SDS011;11207;59.512;18.050;2023-07-24T01:22:24;3.20;;;2.53;;
22080;SDS011;11207;59.512;18.050;2023-07-24T01:27:44;2.73;;;2.50;;
22080;SDS011;11207;59.512;18.050;2023-07-24T01:30:11;4.83;;;2.77;;
22080;SDS011;11207;59.512;18.050;2023-07-24T01:32:38;4.07;;;2.67;;
22080;SDS011;11207;59.512;18.050;2023-07-24T01:35:04;5.60;;;2.80;;
22080;SDS011;11207;59.512;18.050;2023-07-24T01:37:31;3.33;;;2.93;;
22080;SDS011;11207;59.512;18.050;2023-07-24T01:39:59;3.03;;;2.73;;
22080;SDS011;11207;59.512;18.050;2023-07-24T01:42:25;2.90;;;2.60;;
22080;SDS011;11207;59.512;18.050;2023-07-24T01:44:52;3.93;;;2.80;;
22080;SDS011;11207;59.512;18.050;2023-07-24T01:47:18;5.17;;;2.80;;
22080;SDS011;11207;59.512;18.050;2023-07-24T01:49:44;3.50;;;3.20;;
22080;SDS011;11207;59.512;18.050;2023-07-24T01:52:10;3.63;;;2.87;;
22080;SDS011;11207;59.512;18.050;2023-07-24T01:54:35;3.43;;;3.10;;
22080;SDS011;11207;59.512;18.050;2023-07-24T01:57:01;4.20;;;2.70;;
22080;SDS011;11207;59.512;18.050;2023-07-24T01:59:26;3.93;;;2.80;;
22080;SDS011;11207;59.512;18.050;2023-07-24T02:01:52;3.70;;;3.23;;
22080;SDS011;11207;59.512;18.050;2023-07-24T02:04:17;3.17;;;2.87;;
22080;SDS011;11207;59.512;18.050;2023-07-24T02:06:47;4.63;;;2.93;;
22080;SDS011;11207;59.512;18.050;2023-07-24T02:09:17;4.80;;;3.03;;
22080;SDS011;11207;59.512;18.050;2023-07-24T02:11:43;3.40;;;3.00;;
22080;SDS011;11207;59.512;18.050;2023-07-24T02:14:08;4.97;;;3.17;;
22080;SDS011;11207;59.512;18.050;2023-07-24T02:16:37;4.13;;;3.00;;
22080;SDS011;11207;59.512;18.050;2023-07-24T02:19:03;2.90;;;2.60;;
22080;SDS011;11207;59.512;18.050;2023-07-24T02:21:28;3.00;;;2.80;;
22080;SDS011;11207;59.512;18.050;2023-07-24T02:23:54;4.13;;;2.73;;
22080;SDS011;11207;59.512;18.050;2023-07-24T02:26:20;3.40;;;3.10;;
22080;SDS011;11207;59.512;18.050;2023-07-24T02:28:45;3.67;;;3.23;;
22080;SDS011;11207;59.512;18.050;2023-07-24T02:31:11;3.10;;;2.77;;
22080;SDS011;11207;59.512;18.050;2023-07-24T02:33:37;3.93;;;2.77;;
22080;SDS011;11207;59.512;18.050;2023-07-24T02:36:03;3.97;;;2.90;;
22080;SDS011;11207;59.512;18.050;2023-07-24T02:38:28;4.97;;;3.10;;
22080;SDS011;11207;59.512;18.050;2023-07-24T02:40:54;5.30;;;2.97;;
22080;SDS011;11207;59.512;18.050;2023-07-24T02:43:19;4.40;;;3.27;;
22080;SDS011;11207;59.512;18.050;2023-07-24T02:45:45;3.67;;;3.00;;
22080;SDS011;11207;59.512;18.050;2023-07-24T02:48:11;3.60;;;3.13;;
22080;SDS011;11207;59.512;18.050;2023-07-24T02:50:36;2.83;;;2.63;;
22080;SDS011;11207;59.512;18.050;2023-07-24T02:53:02;3.10;;;2.80;;
22080;SDS011;11207;59.512;18.050;2023-07-24T02:55:27;3.90;;;3.20;;
22080;SDS011;11207;59.512;18.050;2023-07-24T02:57:53;6.40;;;3.07;;
22080;SDS011;11207;59.512;18.050;2023-07-24T03:00:18;3.27;;;2.90;;
22080;SDS011;11207;59.512;18.050;2023-07-24T03:02:44;4.13;;;3.10;;
22080;SDS011;11207;59.512;18.050;2023-07-24T03:05:10;3.20;;;2.90;;
22080;SDS011;11207;59.512;18.050;2023-07-24T03:07:35;3.53;;;3.10;;
22080;SDS011;11207;59.512;18.050;2023-07-24T03:10:01;3.43;;;3.13;;
22080;SDS011;11207;59.512;18.050;2023-07-24T03:12:27;3.53;;;3.23;;
22080;SDS011;11207;59.512;18.050;2023-07-24T03:14:53;3.40;;;3.07;;
22080;SDS011;11207;59.512;18.050;2023-07-24T03:17:19;3.67;;;2.80;;
22080;SDS011;11207;59.512;18.050;2023-07-24T03:19:45;3.30;;;3.00;;
22080;SDS011;11207;59.512;18.050;2023-07-24T03:22:10;3.60;;;3.30;;
22080;SDS011;11207;59.512;18.050;2023-07-24T03:24:36;4.33;;;3.00;;
22080;SDS011;11207;59.512;18.050;2023-07-24T03:27:02;3.77;;;3.07;;
22080;SDS011;11207;59.512;18.050;2023-07-24T03:29:27;4.00;;;3.10;;
22080;SDS011;11207;59.512;18.050;2023-07-24T03:31:53;3.43;;;3.13;;
22080;SDS011;11207;59.512;18.050;2023-07-24T03:34:19;4.07;;;3.37;;
22080;SDS011;11207;59.512;18.050;2023-07-24T03:36:45;3.07;;;2.73;;
22080;SDS011;11207;59.512;18.050;2023-07-24T03:39:10;3.23;;;2.93;;
22080;SDS011;11207;59.512;18.050;2023-07-24T03:41:37;5.10;;;3.57;;
22080;SDS011;11207;59.512;18.050;2023-07-24T03:44:03;2.90;;;2.70;;
22080;SDS011;11207;59.512;18.050;2023-07-24T03:46:29;3.23;;;3.03;;
22080;SDS011;11207;59.512;18.050;2023-07-24T03:48:54;3.40;;;3.10;;
22080;SDS011;11207;59.512;18.050;2023-07-24T03:51:20;4.43;;;3.37;;
22080;SDS011;11207;59.512;18.050;2023-07-24T03:53:46;3.87;;;3.20;;
22080;SDS011;11207;59.512;18.050;2023-07-24T03:56:11;3.87;;;3.47;;
22080;SDS011;11207;59.512;18.050;2023-07-24T03:58:37;3.73;;;3.20;;
22080;SDS011;11207;59.512;18.050;2023-07-24T04:01:04;5.10;;;3.43;;
22080;SDS011;11207;59.512;18.050;2023-07-24T04:03:30;3.73;;;3.13;;
22080;SDS011;11207;59.512;18.050;2023-07-24T04:05:55;3.20;;;2.90;;
22080;SDS011;11207;59.512;18.050;2023-07-24T04:08:21;5.27;;;3.50;;
22080;SDS011;11207;59.512;18.050;2023-07-24T04:10:46;4.13;;;3.30;;
22080;SDS011;11207;59.512;18.050;2023-07-24T04:13:12;3.90;;;3.50;;
22080;SDS011;11207;59.512;18.050;2023-07-24T04:15:38;3.50;;;3.20;;
22080;SDS011;11207;59.512;18.050;2023-07-24T04:18:04;3.60;;;3.30;;
22080;SDS011;11207;59.512;18.050;2023-07-24T04:20:30;3.43;;;3.13;;
22080;SDS011;11207;59.512;18.050;2023-07-24T04:22:56;4.00;;;3.43;;
22080;SDS011;11207;59.512;18.050;2023-07-24T04:25:21;6.17;;;3.83;;
22080;SDS011;11207;59.512;18.050;2023-07-24T04:27:47;4.00;;;3.60;;
22080;SDS011;11207;59.512;18.050;2023-07-24T04:30:13;4.17;;;3.37;;
22080;SDS011;11207;59.512;18.050;2023-07-24T04:32:38;4.77;;;3.70;;
22080;SDS011;11207;59.512;18.050;2023-07-24T04:35:04;4.00;;;3.63;;
22080;SDS011;11207;59.512;18.050;2023-07-24T04:37:30;3.83;;;3.43;;
22080;SDS011;11207;59.512;18.050;2023-07-24T04:39:56;4.43;;;3.60;;
22080;SDS011;11207;59.512;18.050;2023-07-24T04:42:21;3.60;;;3.30;;
22080;SDS011;11207;59.512;18.050;2023-07-24T04:44:47;3.50;;;3.20;;
22080;SDS011;11207;59.512;18.050;2023-07-24T04:47:15;5.33;;;3.83;;
22080;SDS011;11207;59.512;18.050;2023-07-24T04:49:40;7.77;;;4.37;;
22080;SDS011;11207;59.512;18.050;2023-07-24T04:52:06;7.63;;;4.33;;
22080;SDS011;11207;59.512;18.050;2023-07-24T04:54:31;7.37;;;4.63;;
22080;SDS011;11207;59.512;18.050;2023-07-24T04:56:58;7.17;;;5.17;;
22080;SDS011;11207;59.512;18.050;2023-07-24T04:59:23;5.03;;;3.93;;
22080;SDS011;11207;59.512;18.050;2023-07-24T05:01:49;5.67;;;3.60;;
22080;SDS011;11207;59.512;18.050;2023-07-24T05:04:15;6.30;;;3.53;;
22080;SDS011;11207;59.512;18.050;2023-07-24T05:06:40;5.73;;;3.70;;
22080;SDS011;11207;59.512;18.050;2023-07-24T05:09:06;4.17;;;3.43;;
22080;SDS011;11207;59.512;18.050;2023-07-24T05:11:32;4.57;;;3.53;;
22080;SDS011;11207;59.512;18.050;2023-07-24T05:13:57;5.37;;;3.33;;
22080;SDS011;11207;59.512;18.050;2023-07-24T05:16:23;4.37;;;3.57;;
22080;SDS011;11207;59.512;18.050;2023-07-24T05:18:48;5.00;;;3.00;;
22080;SDS011;11207;59.512;18.050;2023-07-24T05:21:14;5.17;;;3.43;;
22080;SDS011;11207;59.512;18.050;2023-07-24T05:23:39;3.70;;;2.90;;
22080;SDS011;11207;59.512;18.050;2023-07-24T05:26:05;6.23;;;3.50;;
22080;SDS011;11207;59.512;18.050;2023-07-24T05:28:31;6.70;;;3.57;;
22080;SDS011;11207;59.512;18.050;2023-07-24T05:31:01;4.53;;;3.20;;
22080;SDS011;11207;59.512;18.050;2023-07-24T05:33:30;6.47;;;3.40;;
22080;SDS011;11207;59.512;18.050;2023-07-24T05:35:59;5.47;;;3.63;;
22080;SDS011;11207;59.512;18.050;2023-07-24T05:38:25;6.07;;;3.27;;
22080;SDS011;11207;59.512;18.050;2023-07-24T05:40:58;5.63;;;3.30;;
22080;SDS011;11207;59.512;18.050;2023-07-24T05:43:25;11.33;;;4.03;;
22080;SDS011;11207;59.512;18.050;2023-07-24T05:45:51;5.97;;;3.63;;
22080;SDS011;11207;59.512;18.050;2023-07-24T05:48:17;3.47;;;3.13;;
22080;SDS011;11207;59.512;18.050;2023-07-24T05:50:43;3.77;;;2.97;;
22080;SDS011;11207;59.512;18.050;2023-07-24T05:53:09;5.77;;;3.27;;
22080;SDS011;11207;59.512;18.050;2023-07-24T05:55:37;4.83;;;3.30;;
22080;SDS011;11207;59.512;18.050;2023-07-24T05:58:02;3.80;;;3.10;;
22080;SDS011;11207;59.512;18.050;2023-07-24T06:00:28;5.50;;;2.90;;
22080;SDS011;11207;59.512;18.050;2023-07-24T06:02:53;4.77;;;3.27;;
22080;SDS011;11207;59.512;18.050;2023-07-24T06:05:19;5.40;;;3.30;;
22080;SDS011;11207;59.512;18.050;2023-07-24T06:07:45;6.03;;;3.10;;
22080;SDS011;11207;59.512;18.050;2023-07-24T06:10:11;3.73;;;2.87;;
22080;SDS011;11207;59.512;18.050;2023-07-24T06:12:38;6.33;;;3.37;;
22080;SDS011;11207;59.512;18.050;2023-07-24T06:15:03;5.80;;;3.27;;
22080;SDS011;11207;59.512;18.050;2023-07-24T06:17:30;5.27;;;2.83;;
22080;SDS011;11207;59.512;18.050;2023-07-24T06:19:55;3.53;;;3.23;;
22080;SDS011;11207;59.512;18.050;2023-07-24T06:22:21;6.20;;;2.67;;
22080;SDS011;11207;59.512;18.050;2023-07-24T06:24:47;4.90;;;2.83;;
22080;SDS011;11207;59.512;18.050;2023-07-24T06:27:13;4.90;;;3.50;;
22080;SDS011;11207;59.512;18.050;2023-07-24T06:29:38;4.53;;;2.77;;
22080;SDS011;11207;59.512;18.050;2023-07-24T06:32:04;6.93;;;3.37;;
22080;SDS011;11207;59.512;18.050;2023-07-24T06:34:30;4.78;;;2.70;;
22080;SDS011;11207;59.512;18.050;2023-07-24T06:36:56;3.45;;;2.70;;
22080;SDS011;11207;59.512;18.050;2023-07-24T06:39:21;3.10;;;2.80;;
22080;SDS011;11207;59.512;18.050;2023-07-24T06:41:47;2.83;;;2.58;;
22080;SDS011;11207;59.512;18.050;2023-07-24T06:44:13;7.67;;;2.80;;
22080;SDS011;11207;59.512;18.050;2023-07-24T06:46:38;5.12;;;2.53;;
22080;SDS011;11207;59.512;18.050;2023-07-24T06:49:04;5.10;;;2.78;;
22080;SDS011;11207;59.512;18.050;2023-07-24T06:51:30;5.05;;;2.67;;
22080;SDS011;11207;59.512;18.050;2023-07-24T06:53:55;2.93;;;2.47;;
22080;SDS011;11207;59.512;18.050;2023-07-24T06:56:21;4.73;;;2.70;;
22080;SDS011;11207;59.512;18.050;2023-07-24T06:58:46;3.30;;;2.37;;
22080;SDS011;11207;59.512;18.050;2023-07-24T07:01:12;3.12;;;2.60;;
22080;SDS011;11207;59.512;18.050;2023-07-24T07:03:38;3.90;;;2.53;;
22080;SDS011;11207;59.512;18.050;2023-07-24T07:06:03;4.30;;;2.40;;
22080;SDS011;11207;59.512;18.050;2023-07-24T07:08:31;3.27;;;2.40;;
22080;SDS011;11207;59.512;18.050;2023-07-24T07:10:57;3.58;;;2.45;;
22080;SDS011;11207;59.512;18.050;2023-07-24T07:13:23;4.93;;;2.40;;
22080;SDS011;11207;59.512;18.050;2023-07-24T07:15:49;2.30;;;2.00;;
22080;SDS011;11207;59.512;18.050;2023-07-24T07:18:14;1.73;;;1.62;;
22080;SDS011;11207;59.512;18.050;2023-07-24T07:20:44;3.45;;;2.35;;
22080;SDS011;11207;59.512;18.050;2023-07-24T07:23:14;2.35;;;2.10;;
22080;SDS011;11207;59.512;18.050;2023-07-24T07:25:39;2.10;;;1.80;;
22080;SDS011;11207;59.512;18.050;2023-07-24T07:28:05;3.78;;;2.10;;
22080;SDS011;11207;59.512;18.050;2023-07-24T07:30:31;6.45;;;2.40;;
22080;SDS011;11207;59.512;18.050;2023-07-24T07:32:56;3.45;;;2.10;;
22080;SDS011;11207;59.512;18.050;2023-07-24T07:35:22;3.30;;;2.03;;
22080;SDS011;11207;59.512;18.050;2023-07-24T07:37:47;3.37;;;2.10;;
22080;SDS011;11207;59.512;18.050;2023-07-24T07:40:13;2.50;;;1.80;;
22080;SDS011;11207;59.512;18.050;2023-07-24T07:42:39;1.90;;;1.70;;
22080;SDS011;11207;59.512;18.050;2023-07-24T07:45:04;3.80;;;2.00;;
22080;SDS011;11207;59.512;18.050;2023-07-24T07:47:30;2.42;;;1.83;;
22080;SDS011;11207;59.512;18.050;2023-07-24T07:49:56;2.15;;;1.95;;
22080;SDS011;11207;59.512;18.050;2023-07-24T07:52:21;2.25;;;1.80;;
22080;SDS011;11207;59.512;18.050;2023-07-24T07:54:47;1.90;;;1.70;;
22080;SDS011;11207;59.512;18.050;2023-07-24T07:57:14;2.03;;;1.60;;
22080;SDS011;11207;59.512;18.050;2023-07-24T07:59:39;4.62;;;2.08;;
22080;SDS011;11207;59.512;18.050;2023-07-24T08:02:05;3.17;;;2.00;;
22080;SDS011;11207;59.512;18.050;2023-07-24T08:04:31;3.78;;;1.83;;
22080;SDS011;11207;59.512;18.050;2023-07-24T08:06:57;2.85;;;1.85;;
22080;SDS011;11207;59.512;18.050;2023-07-24T08:09:23;2.17;;;1.55;;
22080;SDS011;11207;59.512;18.050;2023-07-24T08:11:49;3.28;;;2.00;;
22080;SDS011;11207;59.512;18.050;2023-07-24T08:14:16;2.80;;;2.05;;
22080;SDS011;11207;59.512;18.050;2023-07-24T08:16:42;3.28;;;1.83;;
22080;SDS011;11207;59.512;18.050;2023-07-24T08:19:08;3.08;;;1.95;;
22080;SDS011;11207;59.512;18.050;2023-07-24T08:21:33;3.55;;;1.70;;
22080;SDS011;11207;59.512;18.050;2023-07-24T08:23:59;2.40;;;1.80;;
22080;SDS011;11207;59.512;18.050;2023-07-24T08:26:26;1.70;;;1.37;;
22080;SDS011;11207;59.512;18.050;2023-07-24T08:28:52;1.62;;;1.52;;
22080;SDS011;11207;59.512;18.050;2023-07-24T08:31:18;2.35;;;1.70;;
22080;SDS011;11207;59.512;18.050;2023-07-24T08:33:43;2.62;;;1.70;;
22080;SDS011;11207;59.512;18.050;2023-07-24T08:36:09;1.92;;;1.58;;
22080;SDS011;11207;59.512;18.050;2023-07-24T08:38:36;5.55;;;1.77;;
22080;SDS011;11207;59.512;18.050;2023-07-24T08:41:09;3.92;;;1.80;;
22080;SDS011;11207;59.512;18.050;2023-07-24T08:43:37;1.60;;;1.45;;
22080;SDS011;11207;59.512;18.050;2023-07-24T08:46:04;2.22;;;1.67;;
22080;SDS011;11207;59.512;18.050;2023-07-24T08:48:31;2.62;;;1.42;;
22080;SDS011;11207;59.512;18.050;2023-07-24T08:51:01;2.47;;;1.50;;
22080;SDS011;11207;59.512;18.050;2023-07-24T08:53:28;1.85;;;1.48;;
22080;SDS011;11207;59.512;18.050;2023-07-24T08:55:56;2.12;;;1.52;;
22080;SDS011;11207;59.512;18.050;2023-07-24T08:58:22;1.83;;;1.60;;
22080;SDS011;11207;59.512;18.050;2023-07-24T09:00:47;2.22;;;1.50;;
22080;SDS011;11207;59.512;18.050;2023-07-24T09:03:13;2.58;;;1.52;;
22080;SDS011;11207;59.512;18.050;2023-07-24T09:05:39;1.58;;;1.23;;
22080;SDS011;11207;59.512;18.050;2023-07-24T09:08:05;1.92;;;1.40;;
22080;SDS011;11207;59.512;18.050;2023-07-24T09:10:30;1.40;;;1.30;;
22080;SDS011;11207;59.512;18.050;2023-07-24T09:12:56;1.20;;;1.10;;
22080;SDS011;11207;59.512;18.050;2023-07-24T09:15:21;3.65;;;1.80;;
22080;SDS011;11207;59.512;18.050;2023-07-24T09:17:48;1.50;;;1.40;;
22080;SDS011;11207;59.512;18.050;2023-07-24T09:20:20;1.90;;;1.20;;
22080;SDS011;11207;59.512;18.050;2023-07-24T09:22:52;1.15;;;1.08;;
22080;SDS011;11207;59.512;18.050;2023-07-24T09:25:29;2.15;;;1.60;;
22080;SDS011;11207;59.512;18.050;2023-07-24T09:28:01;1.30;;;1.08;;
22080;SDS011;11207;59.512;18.050;2023-07-24T09:30:34;1.30;;;1.20;;
22080;SDS011;11207;59.512;18.050;2023-07-24T09:33:02;1.20;;;1.10;;
22080;SDS011;11207;59.512;18.050;2023-07-24T09:35:27;1.33;;;1.10;;
22080;SDS011;11207;59.512;18.050;2023-07-24T09:38:03;1.15;;;1.05;;
22080;SDS011;11207;59.512;18.050;2023-07-24T09:40:40;1.20;;;1.10;;
22080;SDS011;11207;59.512;18.050;2023-07-24T09:43:21;3.45;;;1.50;;
22080;SDS011;11207;59.512;18.050;2023-07-24T09:45:51;1.65;;;1.17;;
22080;SDS011;11207;59.512;18.050;2023-07-24T09:48:18;1.75;;;1.20;;
22080;SDS011;11207;59.512;18.050;2023-07-24T09:50:45;1.17;;;1.02;;
22080;SDS011;11207;59.512;18.050;2023-07-24T09:53:13;1.75;;;1.37;;
22080;SDS011;11207;59.512;18.050;2023-07-24T09:55:59;1.17;;;1.17;;
22080;SDS011;11207;59.512;18.050;2023-07-24T09:58:26;1.67;;;1.05;;
22080;SDS011;11207;59.512;18.050;2023-07-24T10:00:53;0.85;;;0.80;;
22080;SDS011;11207;59.512;18.050;2023-07-24T10:03:20;0.98;;;0.98;;
22080;SDS011;11207;59.512;18.050;2023-07-24T10:05:47;2.45;;;1.25;;
22080;SDS011;11207;59.512;18.050;2023-07-24T10:08:17;1.48;;;1.10;;
22080;SDS011;11207;59.512;18.050;2023-07-24T10:10:46;1.55;;;1.10;;
22080;SDS011;11207;59.512;18.050;2023-07-24T10:13:16;1.25;;;1.15;;
22080;SDS011;11207;59.512;18.050;2023-07-24T10:15:43;1.00;;;1.00;;
22080;SDS011;11207;59.512;18.050;2023-07-24T10:18:11;1.15;;;1.02;;
22080;SDS011;11207;59.512;18.050;2023-07-24T10:20:38;1.12;;;1.02;;
22080;SDS011;11207;59.512;18.050;2023-07-24T10:23:05;2.22;;;1.10;;
22080;SDS011;11207;59.512;18.050;2023-07-24T10:25:33;1.23;;;1.12;;
22080;SDS011;11207;59.512;18.050;2023-07-24T10:28:08;2.30;;;1.12;;
22080;SDS011;11207;59.512;18.050;2023-07-24T10:30:41;1.65;;;1.20;;
22080;SDS011;11207;59.512;18.050;2023-07-24T10:33:11;1.35;;;1.10;;
22080;SDS011;11207;59.512;18.050;2023-07-24T10:35:45;1.00;;;1.00;;
22080;SDS011;11207;59.512;18.050;2023-07-24T10:38:13;1.10;;;1.10;;
22080;SDS011;11207;59.512;18.050;2023-07-24T10:40:40;0.98;;;0.98;;
22080;SDS011;11207;59.512;18.050;2023-07-24T10:43:07;1.73;;;1.20;;
22080;SDS011;11207;59.512;18.050;2023-07-24T10:48:08;1.30;;;1.20;;
22080;SDS011;11207;59.512;18.050;2023-07-24T10:50:40;2.10;;;1.30;;
22080;SDS011;11207;59.512;18.050;2023-07-24T10:53:07;4.30;;;1.48;;
22080;SDS011;11207;59.512;18.050;2023-07-24T10:55:33;1.12;;;1.08;;
22080;SDS011;11207;59.512;18.050;2023-07-24T10:57:59;2.35;;;1.55;;
22080;SDS011;11207;59.512;18.050;2023-07-24T11:00:25;1.30;;;1.20;;
22080;SDS011;11207;59.512;18.050;2023-07-24T11:02:52;3.00;;;1.35;;
22080;SDS011;11207;59.512;18.050;2023-07-24T11:05:19;1.55;;;1.20;;
22080;SDS011;11207;59.512;18.050;2023-07-24T11:07:49;3.33;;;1.20;;
22080;SDS011;11207;59.512;18.050;2023-07-24T11:10:21;1.95;;;1.35;;
22080;SDS011;11207;59.512;18.050;2023-07-24T11:12:48;1.58;;;1.30;;
22080;SDS011;11207;59.512;18.050;2023-07-24T11:15:15;1.92;;;0.95;;
22080;SDS011;11207;59.512;18.050;2023-07-24T11:17:41;1.50;;;1.12;;
22080;SDS011;11207;59.512;18.050;2023-07-24T11:22:38;1.60;;;1.40;;
22080;SDS011;11207;59.512;18.050;2023-07-24T11:25:07;1.35;;;1.20;;
22080;SDS011;11207;59.512;18.050;2023-07-24T11:27:41;2.35;;;1.12;;
22080;SDS011;11207;59.512;18.050;2023-07-24T11:30:09;1.65;;;1.17;;
22080;SDS011;11207;59.512;18.050;2023-07-24T11:32:40;1.42;;;1.23;;
22080;SDS011;11207;59.512;18.050;2023-07-24T11:35:06;1.98;;;1.33;;
22080;SDS011;11207;59.512;18.050;2023-07-24T11:37:33;1.10;;;1.00;;
22080;SDS011;11207;59.512;18.050;2023-07-24T11:39:59;1.52;;;1.30;;
22080;SDS011;11207;59.512;18.050;2023-07-24T11:42:29;1.67;;;1.35;;
22080;SDS011;11207;59.512;18.050;2023-07-24T11:44:55;1.20;;;1.10;;
22080;SDS011;11207;59.512;18.050;2023-07-24T11:47:21;2.22;;;1.30;;
22080;SDS011;11207;59.512;18.050;2023-07-24T11:49:59;0.90;;;0.90;;
22080;SDS011;11207;59.512;18.050;2023-07-24T11:52:25;1.25;;;1.15;;
22080;SDS011;11207;59.512;18.050;2023-07-24T11:55:02;1.37;;;1.27;;
22080;SDS011;11207;59.512;18.050;2023-07-24T11:57:28;2.30;;;1.20;;
22080;SDS011;11207;59.512;18.050;2023-07-24T11:59:54;1.15;;;1.05;;
22080;SDS011;11207;59.512;18.050;2023-07-24T12:02:23;1.30;;;1.20;;
22080;SDS011;11207;59.512;18.050;2023-07-24T12:04:57;1.12;;;1.02;;
22080;SDS011;11207;59.512;18.050;2023-07-24T12:07:30;1.35;;;1.20;;
22080;SDS011;11207;59.512;18.050;2023-07-24T12:09:58;1.80;;;1.02;;
22080;SDS011;11207;59.512;18.050;2023-07-24T12:12:24;2.78;;;0.95;;
22080;SDS011;11207;59.512;18.050;2023-07-24T12:14:50;1.10;;;0.80;;
22080;SDS011;11207;59.512;18.050;2023-07-24T12:17:19;1.58;;;1.10;;
22080;SDS011;11207;59.512;18.050;2023-07-24T12:19:45;1.10;;;1.00;;
22080;SDS011;11207;59.512;18.050;2023-07-24T12:22:11;1.23;;;1.00;;
22080;SDS011;11207;59.512;18.050;2023-07-24T12:24:37;1.10;;;1.00;;
22080;SDS011;11207;59.512;18.050;2023-07-24T12:27:03;1.15;;;1.00;;
22080;SDS011;11207;59.512;18.050;2023-07-24T12:29:28;1.37;;;1.05;;
22080;SDS011;11207;59.512;18.050;2023-07-24T12:31:54;3.08;;;1.20;;
22080;SDS011;11207;59.512;18.050;2023-07-24T12:34:20;1.33;;;1.02;;
22080;SDS011;11207;59.512;18.050;2023-07-24T12:36:45;2.20;;;1.10;;
22080;SDS011;11207;59.512;18.050;2023-07-24T12:39:12;1.30;;;0.95;;
22080;SDS011;11207;59.512;18.050;2023-07-24T12:41:38;1.17;;;1.10;;
22080;SDS011;11207;59.512;18.050;2023-07-24T12:44:04;1.20;;;1.10;;
22080;SDS011;11207;59.512;18.050;2023-07-24T12:46:29;1.25;;;0.90;;
22080;SDS011;11207;59.512;18.050;2023-07-24T12:48:55;0.93;;;0.93;;
22080;SDS011;11207;59.512;18.050;2023-07-24T12:51:20;2.25;;;1.10;;
22080;SDS011;11207;59.512;18.050;2023-07-24T12:53:46;1.00;;;1.00;;
22080;SDS011;11207;59.512;18.050;2023-07-24T12:56:12;0.90;;;0.90;;
22080;SDS011;11207;59.512;18.050;2023-07-24T12:58:37;1.45;;;1.35;;
22080;SDS011;11207;59.512;18.050;2023-07-24T13:01:03;1.00;;;1.00;;
22080;SDS011;11207;59.512;18.050;2023-07-24T13:03:28;2.00;;;0.90;;
22080;SDS011;11207;59.512;18.050;2023-07-24T13:05:54;1.60;;;1.10;;
22080;SDS011;11207;59.512;18.050;2023-07-24T13:08:19;1.05;;;0.93;;
22080;SDS011;11207;59.512;18.050;2023-07-24T13:10:47;1.17;;;1.02;;
22080;SDS011;11207;59.512;18.050;2023-07-24T13:13:12;0.85;;;0.85;;
22080;SDS011;11207;59.512;18.050;2023-07-24T13:15:38;0.85;;;0.85;;
22080;SDS011;11207;59.512;18.050;2023-07-24T13:18:03;1.45;;;0.75;;
22080;SDS011;11207;59.512;18.050;2023-07-24T13:20:29;0.90;;;0.73;;
22080;SDS011;11207;59.512;18.050;2023-07-24T13:22:54;1.80;;;0.90;;
22080;SDS011;11207;59.512;18.050;2023-07-24T13:25:20;0.73;;;0.73;;
22080;SDS011;11207;59.512;18.050;2023-07-24T13:27:46;0.90;;;0.90;;
22080;SDS011;11207;59.512;18.050;2023-07-24T13:30:11;2.22;;;1.00;;
22080;SDS011;11207;59.512;18.050;2023-07-24T13:32:37;1.10;;;1.00;;
22080;SDS011;11207;59.512;18.050;2023-07-24T13:35:02;1.27;;;0.82;;
22080;SDS011;11207;59.512;18.050;2023-07-24T13:37:29;1.12;;;1.05;;
22080;SDS011;11207;59.512;18.050;2023-07-24T13:39:54;0.85;;;0.68;;
22080;SDS011;11207;59.512;18.050;2023-07-24T13:42:20;1.08;;;0.90;;
22080;SDS011;11207;59.512;18.050;2023-07-24T13:44:46;1.77;;;0.82;;
22080;SDS011;11207;59.512;18.050;2023-07-24T13:47:11;1.50;;;0.80;;
22080;SDS011;11207;59.512;18.050;2023-07-24T13:49:37;0.75;;;0.75;;
22080;SDS011;11207;59.512;18.050;2023-07-24T13:52:02;0.62;;;0.62;;
22080;SDS011;11207;59.512;18.050;2023-07-24T13:54:28;0.90;;;0.90;;
22080;SDS011;11207;59.512;18.050;2023-07-24T13:56:54;0.85;;;0.80;;
22080;SDS011;11207;59.512;18.050;2023-07-24T13:59:19;1.50;;;0.98;;
22080;SDS011;11207;59.512;18.050;2023-07-24T14:01:45;1.12;;;1.02;;
22080;SDS011;11207;59.512;18.050;2023-07-24T14:04:11;0.85;;;0.85;;
22080;SDS011;11207;59.512;18.050;2023-07-24T14:06:37;0.90;;;0.90;;
22080;SDS011;11207;59.512;18.050;2023-07-24T14:09:03;0.70;;;0.70;;
22080;SDS011;11207;59.512;18.050;2023-07-24T14:11:28;2.67;;;1.08;;
22080;SDS011;11207;59.512;18.050;2023-07-24T14:13:54;1.70;;;0.90;;
22080;SDS011;11207;59.512;18.050;2023-07-24T14:16:19;1.73;;;0.80;;
22080;SDS011;11207;59.512;18.050;2023-07-24T14:18:45;0.98;;;0.80;;
22080;SDS011;11207;59.512;18.050;2023-07-24T14:21:10;1.02;;;0.95;;
22080;SDS011;11207;59.512;18.050;2023-07-24T14:23:36;0.93;;;0.93;;
22080;SDS011;11207;59.512;18.050;2023-07-24T14:26:02;2.20;;;1.20;;
22080;SDS011;11207;59.512;18.050;2023-07-24T14:28:27;1.20;;;1.10;;
22080;SDS011;11207;59.512;18.050;2023-07-24T14:30:53;1.65;;;1.17;;
22080;SDS011;11207;59.512;18.050;2023-07-24T14:33:19;1.27;;;1.00;;
22080;SDS011;11207;59.512;18.050;2023-07-24T14:35:44;1.85;;;1.10;;
22080;SDS011;11207;59.512;18.050;2023-07-24T14:38:10;1.30;;;1.20;;